createdAt,value
2018-03-06T16:32:31.376Z,49.60
2018-03-06T16:39:50.676Z,50.87
2018-03-06T16:42:18.220Z,50.17
2018-03-06T16:44:46.547Z,49.73
2018-03-06T16:47:14.088Z,49.27
2018-03-06T16:49:41.672Z,51.73
2018-03-06T16:52:09.246Z,50.70
2018-03-06T16:54:36.836Z,50.97
2018-03-06T16:57:04.400Z,54.07
2018-03-06T16:59:31.940Z,90.80
2018-03-06T17:02:00.269Z,67.00
2018-03-06T17:04:27.829Z,53.60
2018-03-06T17:06:55.407Z,52.60
2018-03-06T17:09:22.972Z,53.77
2018-03-06T17:11:50.536Z,50.70
2018-03-06T17:14:18.097Z,49.87
2018-03-06T17:16:45.704Z,48.97
2018-03-06T17:19:13.224Z,48.67
2018-03-06T17:21:41.552Z,48.67
2018-03-06T17:24:09.108Z,50.00
2018-03-06T17:26:36.696Z,47.97
2018-03-06T17:29:04.246Z,47.67
2018-03-06T17:31:31.796Z,49.63
2018-03-06T17:34:00.150Z,53.53
2018-03-06T17:36:27.701Z,49.47
2018-03-06T17:38:55.264Z,50.37
2018-03-06T17:41:22.808Z,57.77
2018-03-06T17:43:51.172Z,52.73
2018-03-06T17:46:18.712Z,49.87
2018-03-06T17:48:47.137Z,49.10
2018-03-06T17:51:14.687Z,51.10
2018-03-06T17:53:42.253Z,48.57
2018-03-06T17:56:09.820Z,51.00
2018-03-06T17:58:37.407Z,52.00
2018-03-06T18:01:04.965Z,53.73
2018-03-06T18:03:32.556Z,54.57
2018-03-06T18:06:00.118Z,53.80
2018-03-06T18:08:27.672Z,56.90
2018-03-06T18:10:57.336Z,59.40
2018-03-06T18:13:25.708Z,61.93
2018-03-06T18:15:54.093Z,60.33
2018-03-06T18:18:21.648Z,64.40
2018-03-06T18:20:50.025Z,63.20
2018-03-06T18:23:18.182Z,66.97
2018-03-06T18:25:45.750Z,70.43
2018-03-06T18:28:14.016Z,70.87
2018-03-06T18:30:44.036Z,71.13
2018-03-06T18:33:12.624Z,69.50
2018-03-06T18:35:40.199Z,76.77
2018-03-06T18:38:07.768Z,74.50
2018-03-06T18:40:35.354Z,75.37
2018-03-06T18:43:02.922Z,80.10
2018-03-06T18:45:30.529Z,73.60
2018-03-06T18:47:58.077Z,74.30
2018-03-06T18:50:37.461Z,77.17
2018-03-06T18:53:05.904Z,78.63
2018-03-06T18:55:34.105Z,77.67
2018-03-06T18:58:01.669Z,81.90
2018-03-06T19:03:54.663Z,76.43
2018-03-06T19:06:24.029Z,79.87
2018-03-06T19:08:52.423Z,80.37
2018-03-06T19:11:21.854Z,79.37
2018-03-06T19:13:49.408Z,81.00
2018-03-06T19:18:50.931Z,80.57
2018-03-06T19:21:18.506Z,78.80
2018-03-06T19:23:46.074Z,79.87
2018-03-06T19:26:13.861Z,79.27
2018-03-06T19:28:41.497Z,82.60
2018-03-06T19:31:09.058Z,76.43
2018-03-06T19:33:36.625Z,77.40
2018-03-06T19:36:04.185Z,76.60
2018-03-06T19:38:31.750Z,75.50
2018-03-06T19:40:59.313Z,76.73
2018-03-06T19:43:26.906Z,79.23
2018-03-06T19:45:54.498Z,74.80
2018-03-06T19:48:22.070Z,77.57
2018-03-06T19:50:49.620Z,81.33
2018-03-06T19:53:17.209Z,82.10
2018-03-06T19:55:44.989Z,80.83
2018-03-06T19:58:12.566Z,80.47
2018-03-06T20:00:40.138Z,80.57
2018-03-06T20:03:07.870Z,89.83
2018-03-06T20:05:35.446Z,97.37
2018-03-06T20:08:03.012Z,97.87
2018-03-06T20:10:30.619Z,93.90
2018-03-06T20:12:58.178Z,87.10
2018-03-06T20:15:26.045Z,79.30
2018-03-06T20:17:53.963Z,79.13
2018-03-06T20:20:21.814Z,74.90
2018-03-06T20:22:49.409Z,80.13
2018-03-06T20:25:23.010Z,74.37
2018-03-06T20:27:50.600Z,81.07
2018-03-06T20:30:23.749Z,79.90
2018-03-06T20:32:56.873Z,80.07
2018-03-06T20:35:24.465Z,80.80
2018-03-06T20:37:57.699Z,78.17
2018-03-06T20:40:30.833Z,82.23
2018-03-06T20:42:58.407Z,80.77
2018-03-06T20:45:25.976Z,81.50
2018-03-06T20:47:53.586Z,80.10
2018-03-06T20:50:21.149Z,85.70
2018-03-06T20:52:54.292Z,86.63
2018-03-06T20:55:21.885Z,79.40
2018-03-06T21:01:19.483Z,80.10
2018-03-06T21:03:47.060Z,80.60
2018-03-06T21:06:14.708Z,79.57
2018-03-06T21:08:43.245Z,83.20
2018-03-06T21:11:11.131Z,85.27
2018-03-06T21:13:38.722Z,84.53
2018-03-06T21:16:07.140Z,86.60
2018-03-06T21:18:34.742Z,86.93
2018-03-06T21:21:03.039Z,85.37
2018-03-06T21:23:30.614Z,86.97
2018-03-06T21:25:58.206Z,88.40
2018-03-06T21:28:25.768Z,90.80
2018-03-06T21:30:53.718Z,87.43
2018-03-06T21:33:21.392Z,89.90
2018-03-06T21:35:49.029Z,87.50
2018-03-06T21:38:16.672Z,90.30
2018-03-06T21:40:45.519Z,88.33
2018-03-06T21:43:13.189Z,91.27
2018-03-06T21:45:40.802Z,93.87
2018-03-06T21:48:08.449Z,93.00
2018-03-06T21:50:42.757Z,91.27
2018-03-06T21:53:10.333Z,85.70
2018-03-06T21:55:40.790Z,92.97
2018-03-06T21:58:08.423Z,93.17
2018-03-06T22:00:35.985Z,93.33
2018-03-06T22:03:03.539Z,87.23
2018-03-06T22:05:31.128Z,91.53
2018-03-06T22:07:58.678Z,89.83
2018-03-06T22:10:26.312Z,87.70
2018-03-06T22:12:53.838Z,86.03
2018-03-06T22:15:21.424Z,90.47
2018-03-06T22:17:48.992Z,93.13
2018-03-06T22:20:16.547Z,90.73
2018-03-06T22:22:44.129Z,88.40
2018-03-06T22:25:11.677Z,86.67
2018-03-06T22:27:39.253Z,91.30
2018-03-06T22:30:06.843Z,90.40
2018-03-06T22:32:34.419Z,87.07
2018-03-06T22:35:01.976Z,91.70
2018-03-06T22:37:30.342Z,88.23
2018-03-06T22:39:57.898Z,85.87
2018-03-06T22:42:25.461Z,91.77
2018-03-06T22:44:53.812Z,84.27
2018-03-06T22:47:21.360Z,93.87
2018-03-06T22:49:48.945Z,88.77
2018-03-06T22:52:16.499Z,87.67
2018-03-06T22:54:44.095Z,87.23
2018-03-06T22:57:11.649Z,83.80
2018-03-06T22:59:39.206Z,81.33
2018-03-06T23:02:06.783Z,82.50
2018-03-06T23:04:34.344Z,84.10
2018-03-06T23:07:01.913Z,92.07
2018-03-06T23:09:29.482Z,92.00
2018-03-06T23:11:57.064Z,89.17
2018-03-06T23:14:24.623Z,91.03
2018-03-06T23:16:52.215Z,86.30
2018-03-06T23:19:19.775Z,89.97
2018-03-06T23:21:47.326Z,90.33
2018-03-06T23:24:14.907Z,92.07
2018-03-06T23:26:42.469Z,89.57
2018-03-06T23:29:10.054Z,90.00
2018-03-06T23:31:37.618Z,88.33
2018-03-06T23:34:05.191Z,85.43
2018-03-06T23:36:32.743Z,88.63
2018-03-06T23:39:00.311Z,89.83
2018-03-06T23:41:27.903Z,82.87
2018-03-06T23:43:55.463Z,83.77
2018-03-06T23:46:23.055Z,83.47
2018-03-06T23:48:50.621Z,83.97
2018-03-06T23:51:18.199Z,83.43
2018-03-06T23:53:45.786Z,83.33
2018-03-06T23:56:13.346Z,82.47
2018-03-06T23:58:40.913Z,84.00
